Time;durP1;ratioP1;P1;durP2;ratioP2;P2;SDS_P1;SDS_P2;PMS_P1;PMS_P2;Temp;Humidity;BMP_temperature;BMP_pressure;BME280_temperature;BME280_humidity;BME280_pressure;Samples;Min_cycle;Max_cycle;Signal;HPM_P1;HPM_P2
2022/11/03 00:02:16;;;;;;;0.50;0.50;;;;;;;17.63;49.76;100588.22;4818703;29;20121;-86
2022/11/03 00:04:42;;;;;;;0.55;0.55;;;;;;;17.69;49.83;100584.56;4819482;29;20373;-86
2022/11/03 00:07:08;;;;;;;0.52;0.50;;;;;;;17.68;49.81;100588.34;4801601;29;20034;-86
2022/11/03 00:09:33;;;;;;;0.50;0.50;;;;;;;17.66;49.77;100585.06;4819513;29;20026;-86
2022/11/03 00:12:00;;;;;;;0.70;0.50;;;;;;;17.65;49.81;100588.81;4818749;29;20041;-86
2022/11/03 00:14:26;;;;;;;0.50;0.50;;;;;;;17.60;49.79;100569.75;4818115;29;20083;-86
2022/11/03 00:16:52;;;;;;;0.73;0.50;;;;;;;17.67;49.74;100573.16;4819328;29;20374;-86
2022/11/03 00:19:17;;;;;;;0.45;0.45;;;;;;;17.64;49.88;100589.84;4812004;29;20046;-86
2022/11/03 00:21:43;;;;;;;0.90;0.47;;;;;;;17.57;49.95;100572.91;4805720;29;20091;-86
2022/11/03 00:24:09;;;;;;;0.52;0.52;;;;;;;17.67;49.81;100581.28;4814278;29;20035;-86
2022/11/03 00:26:35;;;;;;;0.50;0.40;;;;;;;17.66;49.76;100585.06;4811336;29;20556;-86
2022/11/03 00:29:08;;;;;;;0.60;0.60;;;;;;;17.67;49.92;100575.88;4807905;29;20034;-86
2022/11/03 00:31:34;;;;;;;0.50;0.50;;;;;;;17.67;49.87;100580.47;4804708;29;20035;-86
2022/11/03 00:34:00;;;;;;;0.50;0.50;;;;;;;17.67;49.88;100594.78;4806860;29;20030;-86
2022/11/03 00:36:27;;;;;;;0.55;0.52;;;;;;;17.65;49.83;100580.69;4809647;29;20038;-86
2022/11/03 00:38:53;;;;;;;0.50;0.50;;;;;;;17.62;50.01;100581.16;4807652;29;20418;-86
2022/11/03 00:41:22;;;;;;;1.58;0.60;;;;;;;17.61;49.79;100574.13;4812701;29;20167;-86
2022/11/03 00:43:48;;;;;;;0.68;0.60;;;;;;;17.65;49.79;100581.50;4788571;29;20046;-86
2022/11/03 00:46:13;;;;;;;1.77;0.60;;;;;;;17.66;49.83;100585.06;4792688;29;20026;-86
2022/11/03 00:48:39;;;;;;;0.63;0.63;;;;;;;17.69;49.95;100586.47;4804596;29;20167;-87
2022/11/03 00:51:14;;;;;;;0.43;0.40;;;;;;;17.68;49.86;100576.69;4803427;29;20489;-86
2022/11/03 00:53:44;;;;;;;0.63;0.40;;;;;;;17.65;49.92;100586.91;4814158;29;20042;-86
2022/11/03 00:56:17;;;;;;;0.63;0.50;;;;;;;17.68;49.89;100585.66;4792436;29;20030;-86
2022/11/03 00:58:43;;;;;;;0.30;0.30;;;;;;;17.58;49.92;100575.38;4805556;29;20037;-86
2022/11/03 01:01:19;;;;;;;0.65;0.60;;;;;;;17.62;49.76;100571.16;4779412;29;20027;-86
2022/11/03 01:06:52;;;;;;;0.32;0.32;;;;;;;17.65;49.87;100581.50;4809250;29;20077;-86
2022/11/03 01:09:27;;;;;;;0.50;0.50;;;;;;;17.64;49.86;100584.44;4806216;29;20073;-86
2022/11/03 01:12:00;;;;;;;0.60;0.60;;;;;;;17.66;49.85;100582.34;4804952;29;20053;-86
2022/11/03 01:14:32;;;;;;;0.45;0.45;;;;;;;17.64;49.79;100579.88;4804762;29;20109;-86
2022/11/03 01:16:57;;;;;;;0.50;0.50;;;;;;;17.59;49.89;100571.63;4805776;29;20042;-86
2022/11/03 01:19:24;;;;;;;0.50;0.50;;;;;;;17.64;49.94;100585.28;4813122;29;20572;-86
2022/11/03 01:21:50;;;;;;;0.45;0.40;;;;;;;17.64;49.85;100584.44;4818472;29;20057;-86
2022/11/03 01:24:16;;;;;;;0.52;0.52;;;;;;;17.63;49.87;100582.81;4801565;29;20113;-86
2022/11/03 01:26:42;;;;;;;0.43;0.43;;;;;;;17.66;49.77;100582.34;4817612;29;20046;-86
2022/11/03 01:29:07;;;;;;;0.82;0.43;;;;;;;17.55;49.82;100565.03;4817862;29;20162;-86
2022/11/03 01:31:33;;;;;;;0.68;0.45;;;;;;;17.62;49.83;100575.75;4817734;29;20481;-86
2022/11/03 01:33:59;;;;;;;0.50;0.50;;;;;;;17.66;49.92;100582.34;4801421;29;20442;-86
2022/11/03 01:36:24;;;;;;;0.43;0.43;;;;;;;17.66;49.88;100585.06;4801470;29;20295;-86
2022/11/03 01:38:50;;;;;;;0.43;0.40;;;;;;;17.67;49.89;100585.88;4817462;29;20035;-86
2022/11/03 01:41:20;;;;;;;0.65;0.50;;;;;;;17.67;49.87;100588.56;4817604;29;20488;-86
2022/11/03 01:44:07;;;;;;;0.90;0.40;;;;;;;17.64;49.94;100581.72;4817432;29;20041;-86
2022/11/03 01:46:53;;;;;;;0.70;0.43;;;;;;;17.63;49.93;100582.81;4816594;29;20042;-86
2022/11/03 01:49:33;;;;;;;0.40;0.40;;;;;;;17.65;49.91;100584.22;4814913;29;20125;-86
2022/11/03 01:52:12;;;;;;;0.50;0.50;;;;;;;17.59;49.93;100581.59;4818141;29;20050;-87
2022/11/03 01:54:38;;;;;;;0.38;0.38;;;;;;;17.63;49.84;100588.22;4800422;29;20113;-86
2022/11/03 01:57:10;;;;;;;0.50;0.50;;;;;;;17.64;49.93;100590.69;4817719;29;20034;-86
2022/11/03 01:59:36;;;;;;;0.45;0.45;;;;;;;17.60;49.72;100583.25;4801767;29;20022;-87
2022/11/03 02:02:02;;;;;;;0.40;0.40;;;;;;;17.66;49.80;100587.75;4785358;29;20090;-86
2022/11/03 02:04:29;;;;;;;0.50;0.50;;;;;;;17.63;49.76;100582.81;4801965;29;20419;-86
2022/11/03 02:07:18;;;;;;;0.43;0.43;;;;;;;17.62;49.94;100584.66;4789468;29;20179;-87
2022/11/03 02:09:43;;;;;;;0.65;0.52;;;;;;;17.63;49.87;100585.50;4820112;29;20076;-86
2022/11/03 02:12:09;;;;;;;0.40;0.40;;;;;;;17.62;49.86;100590.06;4821386;29;20113;-86
2022/11/03 02:14:38;;;;;;;0.40;0.40;;;;;;;17.57;49.74;100579.13;4804050;29;20053;-86
2022/11/03 02:17:08;;;;;;;1.55;0.40;;;;;;;17.64;49.89;100584.44;4819607;29;20041;-86
2022/11/03 02:19:56;;;;;;;0.50;0.50;;;;;;;17.63;49.93;100583.63;4804467;29;20062;-86
2022/11/03 02:22:47;;;;;;;0.40;0.40;;;;;;;17.59;49.96;100577.03;4803692;29;20042;-86
2022/11/03 02:25:14;;;;;;;0.43;0.40;;;;;;;17.64;49.77;100581.72;4789939;29;20091;-86
2022/11/03 02:27:40;;;;;;;0.40;0.40;;;;;;;17.61;50.10;100582.22;4804586;29;20038;-86
2022/11/03 02:30:06;;;;;;;0.40;0.40;;;;;;;17.65;49.97;100572.59;4774541;29;20056;-86
2022/11/03 02:32:55;;;;;;;0.40;0.40;;;;;;;17.66;49.81;100582.34;4804226;29;20050;-86
2022/11/03 02:35:35;;;;;;;0.52;0.43;;;;;;;17.61;50.03;100576.81;4819265;29;20038;-86
2022/11/03 02:38:01;;;;;;;0.47;0.47;;;;;;;17.57;49.84;100567.50;4820005;29;20107;-86
2022/11/03 02:40:32;;;;;;;1.15;0.40;;;;;;;17.64;49.98;100579.03;4820596;29;20500;-86
2022/11/03 02:42:58;;;;;;;0.40;0.40;;;;;;;17.64;49.75;100582.59;4804026;29;20082;-86
2022/11/03 02:45:24;;;;;;;0.30;0.30;;;;;;;17.60;49.76;100583.25;4803850;29;20034;-87
2022/11/03 02:47:49;;;;;;;1.55;0.35;;;;;;;17.64;49.88;100592.53;4788229;29;20037;-86
2022/11/03 02:50:15;;;;;;;0.88;0.40;;;;;;;17.65;49.88;100591.50;4819844;29;20039;-86
2022/11/03 02:52:47;;;;;;;0.40;0.38;;;;;;;17.63;49.90;100589.03;4804254;29;20030;-86
2022/11/03 02:55:32;;;;;;;0.40;0.40;;;;;;;17.64;49.83;100579.88;4819247;29;20054;-86
2022/11/03 02:58:05;;;;;;;0.30;0.30;;;;;;;17.64;49.88;100585.28;4804006;29;20031;-86
2022/11/03 03:00:31;;;;;;;0.60;0.30;;;;;;;17.61;49.91;100580.34;4789719;29;20027;-87
2022/11/03 03:03:28;;;;;;;0.30;0.30;;;;;;;17.56;49.77;100576.69;4787766;29;20056;-86
2022/11/03 03:05:56;;;;;;;0.57;0.50;;;;;;;17.65;49.85;100580.69;4820191;29;20638;-86
2022/11/03 03:08:22;;;;;;;2.00;0.55;;;;;;;17.65;50.11;100592.31;4819252;29;20520;-86
2022/11/03 03:10:48;;;;;;;0.35;0.35;;;;;;;17.65;49.82;100594.22;4788947;29;20041;-86
2022/11/03 03:13:16;;;;;;;0.45;0.40;;;;;;;17.55;49.91;100578.53;4819181;29;20447;-86
2022/11/03 03:15:45;;;;;;;0.40;0.40;;;;;;;17.63;49.82;100580.91;4786723;29;20386;-86
2022/11/03 03:18:30;;;;;;;2.05;0.50;;;;;;;17.65;49.85;100586.91;4803168;29;20397;-86
2022/11/03 03:21:29;;;;;;;0.80;0.60;;;;;;;17.60;49.82;100575.16;4818688;29;20026;-86
2022/11/03 03:24:05;;;;;;;0.52;0.40;;;;;;;17.63;49.77;100585.50;4804236;29;20051;-86
2022/11/03 03:26:36;;;;;;;0.38;0.32;;;;;;;17.60;49.76;100577.84;4819056;29;20121;-87
2022/11/03 03:29:17;;;;;;;0.30;0.30;;;;;;;17.58;49.88;100574.56;4788118;29;20031;-86
2022/11/03 03:31:46;;;;;;;0.30;0.30;;;;;;;17.65;49.80;100581.50;4819268;29;20496;-86
2022/11/03 03:34:12;;;;;;;0.70;0.40;;;;;;;17.61;49.80;100591.13;4788228;29;20037;-86
2022/11/03 03:36:37;;;;;;;0.73;0.30;;;;;;;17.61;49.84;100587.63;4802943;29;20098;-86
2022/11/03 03:39:03;;;;;;;0.40;0.40;;;;;;;17.61;49.79;100587.63;4788079;29;20035;-86
2022/11/03 03:41:31;;;;;;;0.30;0.30;;;;;;;17.64;49.90;100589.84;4788554;29;20087;-86
2022/11/03 03:43:59;;;;;;;0.38;0.35;;;;;;;17.64;49.85;100595.25;4818978;29;20038;-86
2022/11/03 03:46:27;;;;;;;0.30;0.30;;;;;;;17.61;49.97;100590.31;4819565;29;20049;-86
2022/11/03 03:48:53;;;;;;;0.50;0.40;;;;;;;17.66;49.82;100590.47;4802951;29;20061;-86
2022/11/03 03:51:22;;;;;;;0.32;0.30;;;;;;;17.64;49.78;100589.84;4819143;29;20034;-86
2022/11/03 03:53:52;;;;;;;0.30;0.30;;;;;;;17.63;49.59;100594.44;4788225;29;20135;-87
2022/11/03 03:56:23;;;;;;;0.60;0.40;;;;;;;17.63;49.84;100593.63;4818281;29;20133;-86
2022/11/03 03:58:48;;;;;;;0.40;0.40;;;;;;;17.59;49.63;100587.00;4803617;29;20022;-86
2022/11/03 04:01:14;;;;;;;0.60;0.40;;;;;;;17.64;49.77;100579.88;4802384;29;20465;-86
2022/11/03 04:03:39;;;;;;;0.38;0.38;;;;;;;17.62;49.70;100576.56;4817820;29;20204;-86
2022/11/03 04:06:05;;;;;;;0.47;0.40;;;;;;;17.53;49.86;100571.72;4819345;29;20053;-86
2022/11/03 04:08:30;;;;;;;0.30;0.30;;;;;;;17.61;49.88;100574.13;4802268;29;20027;-87
2022/11/03 04:24:38;;;;;;;0.28;0.28;;;;;;;17.54;49.74;100576.06;4818443;29;20041;-86
2022/11/03 04:27:24;;;;;;;0.45;0.40;;;;;;;17.62;49.80;100589.25;4802120;29;20034;-86
2022/11/03 04:29:50;;;;;;;0.32;0.32;;;;;;;17.60;49.82;100591.38;4817971;29;20063;-86
2022/11/03 04:32:18;;;;;;;0.40;0.30;;;;;;;17.63;49.71;100593.63;4818234;29;20109;-86
2022/11/03 04:34:46;;;;;;;0.30;0.30;;;;;;;17.62;49.91;100600.06;4802343;29;20101;-86
2022/11/03 04:37:13;;;;;;;0.35;0.35;;;;;;;17.64;49.81;100597.94;4801089;29;20043;-86
2022/11/03 04:39:38;;;;;;;0.40;0.40;;;;;;;17.55;49.92;100585.81;4818876;29;20037;-86
2022/11/03 04:42:30;;;;;;;0.45;0.45;;;;;;;17.60;49.72;100602.19;4819051;29;20109;-86
2022/11/03 04:44:55;;;;;;;0.30;0.30;;;;;;;17.60;49.74;100604.88;4803783;29;20434;-86
2022/11/03 04:47:21;;;;;;;0.30;0.30;;;;;;;17.58;49.88;100601.59;4818074;29;20124;-86
2022/11/03 04:49:47;;;;;;;0.50;0.40;;;;;;;17.62;49.79;100603.59;4801774;29;20034;-86
2022/11/03 04:52:18;;;;;;;0.60;0.40;;;;;;;17.62;49.87;100602.78;4818837;29;20018;-86
2022/11/03 04:54:44;;;;;;;0.20;0.20;;;;;;;17.56;49.68;100601.00;4801516;29;20516;-86
2022/11/03 04:57:11;;;;;;;0.40;0.40;;;;;;;17.54;49.74;100594.97;4818029;29;20093;-86
2022/11/03 04:59:37;;;;;;;0.90;0.40;;;;;;;17.58;49.70;100612.41;4818545;29;20030;-86
2022/11/03 05:02:05;;;;;;;0.30;0.30;;;;;;;17.53;49.87;100604.16;4817637;29;20114;-86
2022/11/03 05:04:33;;;;;;;0.30;0.30;;;;;;;17.61;49.91;100609.25;4801213;29;20050;-86
2022/11/03 05:06:59;;;;;;;1.20;0.40;;;;;;;17.62;49.78;100609.00;4817638;29;20561;-86
2022/11/03 05:09:29;;;;;;;0.40;0.40;;;;;;;17.63;49.77;100609.84;4818377;29;20054;-86
2022/11/03 05:11:54;;;;;;;0.30;0.30;;;;;;;17.52;49.79;100602.50;4817027;29;20041;-86
2022/11/03 05:14:29;;;;;;;0.30;0.30;;;;;;;17.53;49.78;100609.56;4817801;29;20454;-86
2022/11/03 05:16:54;;;;;;;0.30;0.30;;;;;;;17.62;49.62;100624.38;4818133;29;20045;-86
2022/11/03 05:19:31;;;;;;;0.40;0.40;;;;;;;17.57;49.83;100614.25;4809335;29;20050;-86
2022/11/03 05:21:57;;;;;;;0.38;0.38;;;;;;;17.58;49.79;100617.81;4787897;29;20103;-86
2022/11/03 05:24:26;;;;;;;0.57;0.50;;;;;;;17.62;49.75;100629.78;4812853;29;20570;-86
2022/11/03 05:26:53;;;;;;;0.52;0.50;;;;;;;17.59;49.63;100620.28;4802201;29;20046;-86
2022/11/03 05:29:21;;;;;;;0.40;0.40;;;;;;;17.59;49.88;100620.28;4796371;29;20063;-87
2022/11/03 05:31:47;;;;;;;0.50;0.50;;;;;;;17.60;49.74;100621.91;4788110;29;20534;-86
2022/11/03 05:34:34;;;;;;;0.40;0.40;;;;;;;17.63;49.82;100626.06;4807187;29;20039;-86
2022/11/03 05:37:05;;;;;;;0.40;0.40;;;;;;;17.63;49.82;100631.44;4811803;29;20519;-86
2022/11/03 05:39:40;;;;;;;0.40;0.32;;;;;;;17.63;49.72;100631.44;4798503;29;20045;-86
2022/11/03 05:42:40;;;;;;;0.30;0.30;;;;;;;17.59;49.80;100624.84;4790841;29;20941;-86
2022/11/03 05:45:21;;;;;;;0.47;0.47;;;;;;;17.58;49.84;100628.59;4791979;29;20034;-86
2022/11/03 05:47:47;;;;;;;0.45;0.38;;;;;;;17.61;49.71;100628.16;4803454;29;20129;-87
2022/11/03 05:50:20;;;;;;;0.40;0.40;;;;;;;17.61;49.81;100636.28;4805439;29;20113;-86
2022/11/03 05:52:47;;;;;;;0.50;0.50;;;;;;;17.60;49.82;100630.00;4806961;29;20027;-86
2022/11/03 05:55:20;;;;;;;0.40;0.40;;;;;;;17.54;49.73;100627.41;4805176;29;20037;-86
2022/11/03 05:57:45;;;;;;;0.50;0.50;;;;;;;17.58;49.71;100628.59;4807795;29;20038;-86
2022/11/03 06:00:41;;;;;;;0.40;0.40;;;;;;;17.51;49.64;100622.47;4806125;29;20026;-86
2022/11/03 06:03:06;;;;;;;0.60;0.60;;;;;;;17.60;49.65;100642.72;4804869;29;20107;-86
2022/11/03 06:05:33;;;;;;;0.60;0.50;;;;;;;17.62;49.84;100646.00;4806369;29;20113;-86
2022/11/03 06:08:00;;;;;;;0.52;0.52;;;;;;;17.61;49.72;100653.31;4803729;29;20501;-86
2022/11/03 06:10:31;;;;;;;0.47;0.47;;;;;;;17.60;49.91;100656.22;4812866;29;20069;-86
2022/11/03 06:13:18;;;;;;;0.50;0.50;;;;;;;17.62;49.80;100646.00;4788845;29;20027;-86
2022/11/03 06:15:45;;;;;;;0.55;0.40;;;;;;;17.60;49.87;100658.94;4788002;29;20034;-86
2022/11/03 06:18:21;;;;;;;0.45;0.45;;;;;;;17.62;49.87;100657.63;4793729;29;20038;-86
2022/11/03 06:20:55;;;;;;;0.43;0.43;;;;;;;17.52;49.75;100651.94;4803000;29;20389;-86
2022/11/03 06:23:21;;;;;;;0.60;0.60;;;;;;;17.62;49.88;100662.22;4795348;29;20038;-86
2022/11/03 06:25:46;;;;;;;0.50;0.50;;;;;;;17.62;49.77;100656.81;4794768;29;20131;-86
2022/11/03 06:28:38;;;;;;;0.45;0.45;;;;;;;17.63;49.77;100647.66;4802418;29;20503;-86
2022/11/03 06:31:06;;;;;;;0.57;0.40;;;;;;;17.51;49.83;100641.38;4800097;29;20066;-86
2022/11/03 06:33:34;;;;;;;0.60;0.60;;;;;;;17.57;49.84;100653.97;4814843;29;20037;-86
2022/11/03 06:36:16;;;;;;;0.40;0.40;;;;;;;17.61;49.69;100664.09;4789831;29;20453;-86
2022/11/03 06:38:41;;;;;;;0.50;0.50;;;;;;;17.58;49.82;100658.34;4788924;29;20031;-86
2022/11/03 06:41:22;;;;;;;0.40;0.40;;;;;;;17.61;49.78;100666.00;4792062;29;20069;-86
2022/11/03 06:43:47;;;;;;;0.60;0.60;;;;;;;17.53;49.86;100659.00;4805593;29;20031;-86
2022/11/03 06:46:17;;;;;;;0.50;0.50;;;;;;;17.60;49.79;100667.84;4784872;29;20548;-86
2022/11/03 06:48:43;;;;;;;0.32;0.32;;;;;;;17.55;49.76;100666.88;4805516;29;20026;-86
2022/11/03 06:51:15;;;;;;;0.47;0.40;;;;;;;17.53;49.82;100672.53;4804330;29;20670;-86
2022/11/03 06:53:40;;;;;;;0.40;0.40;;;;;;;17.62;49.83;100681.94;4814772;29;20518;-87
2022/11/03 06:56:10;;;;;;;0.43;0.43;;;;;;;17.61;49.79;100682.22;4793664;29;20034;-86
2022/11/03 06:58:36;;;;;;;0.30;0.30;;;;;;;17.60;49.99;100672.44;4810609;29;20074;-86
2022/11/03 07:01:09;;;;;;;0.40;0.40;;;;;;;17.53;49.93;100669.00;4796047;29;20057;-86
2022/11/03 07:03:36;;;;;;;1.05;0.40;;;;;;;17.60;50.16;100684.06;4785814;29;20038;-86
2022/11/03 07:06:23;;;;;;;0.40;0.40;;;;;;;17.60;49.93;100678.66;4777157;29;20035;-86
2022/11/03 07:08:50;;;;;;;0.30;0.30;;;;;;;17.50;49.93;100669.44;4803627;29;20130;-86
2022/11/03 07:11:18;;;;;;;0.30;0.30;;;;;;;17.60;50.02;100683.25;4794210;29;20058;-86
2022/11/03 07:13:44;;;;;;;0.45;0.40;;;;;;;17.52;49.86;100670.03;4810726;29;20435;-86
2022/11/03 07:16:33;;;;;;;0.50;0.50;;;;;;;17.59;50.18;100690.53;4806129;29;20392;-87
2022/11/03 07:18:59;;;;;;;0.47;0.40;;;;;;;17.62;49.80;100689.25;4794405;29;20046;-86
2022/11/03 07:21:39;;;;;;;0.55;0.40;;;;;;;17.62;49.90;100689.25;4785227;29;20808;-86
2022/11/03 07:24:40;;;;;;;0.40;0.40;;;;;;;17.53;49.80;100682.50;4800836;29;20038;-86
2022/11/03 07:27:28;;;;;;;0.70;0.50;;;;;;;17.62;49.77;100690.06;4796861;29;20050;-86
2022/11/03 07:29:59;;;;;;;0.40;0.40;;;;;;;17.60;50.00;100697.56;4811372;29;20023;-86
2022/11/03 07:32:30;;;;;;;0.35;0.35;;;;;;;17.63;49.94;100690.91;4784525;29;20043;-86
2022/11/03 07:35:03;;;;;;;1.45;0.50;;;;;;;17.56;49.93;100673.97;4802306;29;20043;-86
2022/11/03 07:37:32;;;;;;;0.32;0.32;;;;;;;17.62;49.99;100686.53;4799476;29;20137;-87
2022/11/03 07:39:58;;;;;;;0.60;0.30;;;;;;;17.61;50.11;100687.63;4798631;29;20142;-86
2022/11/03 07:42:24;;;;;;;0.40;0.40;;;;;;;17.62;50.03;100691.94;4801341;29;20409;-86
2022/11/03 07:44:50;;;;;;;0.60;0.40;;;;;;;17.52;50.20;100684.38;4800009;29;20277;-86
2022/11/03 07:47:18;;;;;;;0.55;0.55;;;;;;;17.50;49.92;100664.84;4801468;29;20384;-86
2022/11/03 07:49:44;;;;;;;0.30;0.30;;;;;;;17.56;50.10;100684.78;4799390;29;20037;-86
2022/11/03 07:52:11;;;;;;;0.30;0.30;;;;;;;17.63;50.00;100685.50;4802010;29;20463;-86
2022/11/03 07:54:37;;;;;;;0.40;0.40;;;;;;;17.62;50.04;100700.88;4800541;29;20118;-87
2022/11/03 07:57:20;;;;;;;0.47;0.32;;;;;;;17.63;49.85;100690.91;4800869;29;20175;-86
2022/11/03 07:59:47;;;;;;;0.60;0.40;;;;;;;17.62;50.06;100691.94;4799926;29;20039;-86
2022/11/03 08:02:28;;;;;;;0.30;0.30;;;;;;;17.60;50.00;100689.47;4798488;29;20022;-86
2022/11/03 08:04:54;;;;;;;0.40;0.40;;;;;;;17.61;50.07;100688.44;4800364;29;20026;-86
2022/11/03 08:07:19;;;;;;;0.50;0.50;;;;;;;17.56;49.90;100687.47;4800307;29;20030;-86
2022/11/03 08:09:45;;;;;;;0.40;0.40;;;;;;;17.63;49.99;100690.91;4799738;29;20039;-86
2022/11/03 08:12:11;;;;;;;0.30;0.30;;;;;;;17.64;49.94;100695.25;4801150;29;20122;-86
2022/11/03 08:14:36;;;;;;;0.73;0.50;;;;;;;17.64;50.03;100701.50;4800846;29;20030;-86
2022/11/03 08:17:03;;;;;;;0.50;0.40;;;;;;;17.63;50.14;100696.31;4799570;29;20117;-86
2022/11/03 08:19:29;;;;;;;1.10;0.50;;;;;;;17.63;50.40;100696.31;4803409;29;20050;-86
2022/11/03 08:21:55;;;;;;;0.30;0.30;;;;;;;17.64;50.05;100700.66;4787060;29;20034;-86
2022/11/03 08:24:21;;;;;;;0.40;0.40;;;;;;;17.63;50.10;100701.72;4812873;29;20074;-86
2022/11/03 08:26:46;;;;;;;0.47;0.40;;;;;;;17.63;50.12;100702.53;4806376;29;20575;-86
2022/11/03 08:29:12;;;;;;;0.50;0.50;;;;;;;17.62;50.16;100691.94;4812268;29;20105;-86
2022/11/03 08:31:38;;;;;;;0.35;0.35;;;;;;;17.65;50.15;100699.63;4789009;29;20478;-86
2022/11/03 08:34:03;;;;;;;0.60;0.45;;;;;;;17.62;50.06;100694.66;4794414;29;20038;-87
2022/11/03 08:36:29;;;;;;;0.40;0.40;;;;;;;17.65;50.18;100702.31;4790838;29;20064;-86
2022/11/03 08:38:54;;;;;;;0.95;0.40;;;;;;;17.64;50.12;100692.53;4791082;29;20030;-86
2022/11/03 08:41:20;;;;;;;0.40;0.40;;;;;;;17.65;50.24;100696.91;4797423;29;20124;-86
2022/11/03 08:43:46;;;;;;;0.30;0.30;;;;;;;17.65;50.09;100699.63;4812062;29;20116;-86
2022/11/03 08:46:14;;;;;;;0.40;0.40;;;;;;;17.64;50.13;100697.94;4796806;29;20392;-87
2022/11/03 08:48:40;;;;;;;0.35;0.35;;;;;;;17.65;50.11;100699.63;4812422;29;20041;-86
2022/11/03 08:51:07;;;;;;;0.30;0.30;;;;;;;17.61;50.10;100696.53;4772495;29;20401;-86
2022/11/03 08:53:33;;;;;;;0.40;0.40;;;;;;;17.64;50.25;100698.78;4807198;29;20031;-86
2022/11/03 08:55:59;;;;;;;0.40;0.40;;;;;;;17.65;50.19;100702.31;4804251;29;20372;-86
2022/11/03 08:58:25;;;;;;;0.30;0.30;;;;;;;17.59;50.17;100690.53;4807331;29;20070;-86
2022/11/03 09:00:50;;;;;;;1.40;0.40;;;;;;;17.68;50.11;100693.75;4774135;29;20034;-86
2022/11/03 09:03:16;;;;;;;0.40;0.40;;;;;;;17.66;50.13;100698.56;4800351;29;20031;-87
2022/11/03 09:05:41;;;;;;;0.32;0.32;;;;;;;17.65;50.22;100696.91;4807168;29;20031;-86
2022/11/03 09:08:07;;;;;;;0.38;0.38;;;;;;;17.66;50.19;100695.88;4801434;29;20465;-86
2022/11/03 09:10:33;;;;;;;0.40;0.40;;;;;;;17.67;50.14;100697.50;4806570;29;20031;-86
2022/11/03 09:12:58;;;;;;;0.38;0.38;;;;;;;17.66;50.27;100701.28;4806579;29;20053;-86
2022/11/03 09:15:24;;;;;;;0.30;0.30;;;;;;;17.64;50.30;100697.94;4803022;29;20167;-86
2022/11/03 09:17:50;;;;;;;0.45;0.45;;;;;;;17.69;50.18;100699.97;4809939;29;20070;-86
2022/11/03 09:20:15;;;;;;;0.40;0.40;;;;;;;17.61;50.26;100687.63;4804690;29;20058;-86
2022/11/03 09:22:41;;;;;;;1.75;0.30;;;;;;;17.63;50.15;100685.50;4804467;29;20088;-86
2022/11/03 09:25:07;;;;;;;0.50;0.50;;;;;;;17.65;50.34;100686.09;4808116;29;20039;-86
2022/11/03 09:27:36;;;;;;;1.10;0.40;;;;;;;17.68;50.11;100693.75;4790790;29;20144;-86
2022/11/03 09:30:02;;;;;;;0.38;0.30;;;;;;;17.67;50.30;100686.69;4790118;29;20030;-86
2022/11/03 09:32:28;;;;;;;1.17;0.40;;;;;;;17.70;50.24;100685.44;4807078;29;20160;-86
2022/11/03 09:34:53;;;;;;;0.30;0.30;;;;;;;17.70;50.30;100691.66;4806130;29;20122;-86
2022/11/03 09:37:19;;;;;;;0.30;0.30;;;;;;;17.68;50.39;100685.66;4807426;29;20496;-86
2022/11/03 09:39:45;;;;;;;0.40;0.40;;;;;;;17.70;50.27;100691.66;4799611;29;20050;-86
2022/11/03 09:42:10;;;;;;;0.30;0.30;;;;;;;17.69;50.28;100686.47;4788050;29;20564;-86
2022/11/03 09:44:36;;;;;;;0.47;0.40;;;;;;;17.70;50.13;100685.44;4772759;29;20771;-86
2022/11/03 09:47:02;;;;;;;0.38;0.38;;;;;;;17.69;50.34;100689.16;4813754;29;20091;-86
2022/11/03 09:49:30;;;;;;;0.30;0.30;;;;;;;17.70;50.33;100686.25;4807939;29;20031;-86
2022/11/03 09:51:56;;;;;;;0.38;0.38;;;;;;;17.70;50.40;100680.84;4803490;29;20297;-86
2022/11/03 09:54:22;;;;;;;0.30;0.30;;;;;;;17.66;50.36;100679.66;4805940;29;20232;-86
2022/11/03 09:56:47;;;;;;;0.30;0.30;;;;;;;17.57;50.33;100664.78;4804538;29;20035;-86
2022/11/03 09:59:18;;;;;;;0.30;0.30;;;;;;;17.71;50.40;100701.38;4800652;29;20506;-86
2022/11/03 10:01:44;;;;;;;0.40;0.40;;;;;;;17.68;50.25;100680.25;4800749;29;20035;-86
2022/11/03 10:04:13;;;;;;;0.30;0.30;;;;;;;17.68;50.25;100691.06;4784969;29;20405;-86
2022/11/03 10:06:39;;;;;;;0.57;0.50;;;;;;;17.61;50.23;100676.81;4801645;29;20050;-86
2022/11/03 10:09:08;;;;;;;0.68;0.30;;;;;;;17.72;50.36;100694.94;4766375;29;20028;-86
2022/11/03 10:11:34;;;;;;;0.40;0.40;;;;;;;17.62;50.47;100686.53;4785506;29;20027;-86
2022/11/03 10:14:00;;;;;;;0.43;0.30;;;;;;;17.67;50.37;100692.09;4800370;29;20374;-86
2022/11/03 10:16:25;;;;;;;0.40;0.40;;;;;;;17.73;50.32;100693.91;4784760;29;20067;-86
2022/11/03 10:18:51;;;;;;;0.40;0.40;;;;;;;17.73;50.45;100701.16;4805886;29;20393;-86
2022/11/03 10:21:24;;;;;;;0.93;0.40;;;;;;;17.74;50.37;100695.53;4801504;29;20161;-86
2022/11/03 10:23:50;;;;;;;0.40;0.40;;;;;;;17.73;50.53;100695.75;4819229;29;20082;-86
2022/11/03 10:26:18;;;;;;;0.55;0.50;;;;;;;17.69;50.42;100695.38;4804104;29;20525;-86
2022/11/03 10:29:04;;;;;;;0.30;0.30;;;;;;;17.73;50.59;100699.31;4806543;29;20113;-86
2022/11/03 10:31:37;;;;;;;1.17;0.50;;;;;;;17.67;50.51;100689.41;4821818;29;20066;-86
2022/11/03 10:34:03;;;;;;;0.32;0.32;;;;;;;17.72;50.63;100692.25;4806592;29;20362;-86
2022/11/03 10:36:30;;;;;;;0.30;0.30;;;;;;;17.70;50.70;100688.94;4816285;29;20400;-86
2022/11/03 10:38:56;;;;;;;0.50;0.32;;;;;;;17.72;50.66;100686.84;4802710;29;20269;-86
2022/11/03 10:41:26;;;;;;;0.73;0.40;;;;;;;17.71;50.52;100687.06;4820449;29;20500;-86
2022/11/03 10:44:19;;;;;;;0.40;0.40;;;;;;;17.70;50.70;100691.66;4802682;29;20023;-86
2022/11/03 10:47:05;;;;;;;0.30;0.30;;;;;;;17.74;50.59;100692.00;4805829;29;20095;-86
2022/11/03 10:49:31;;;;;;;0.40;0.40;;;;;;;17.65;50.55;100689.63;4801663;29;20484;-86
2022/11/03 10:52:18;;;;;;;0.57;0.50;;;;;;;17.75;50.58;100705.31;4798592;29;20126;-86
2022/11/03 10:54:44;;;;;;;0.50;0.50;;;;;;;17.77;50.50;100703.19;4803606;29;20057;-86
2022/11/03 10:57:09;;;;;;;0.95;0.70;;;;;;;17.75;50.72;100699.91;4816986;29;20045;-86
2022/11/03 10:59:36;;;;;;;0.57;0.40;;;;;;;17.76;50.57;100706.13;4819752;29;20125;-86
2022/11/03 11:02:02;;;;;;;0.60;0.40;;;;;;;17.77;50.57;100708.59;4804372;29;20034;-86
2022/11/03 11:04:27;;;;;;;0.30;0.30;;;;;;;17.77;50.60;100707.78;4787951;29;20034;-86
2022/11/03 11:06:53;;;;;;;0.30;0.30;;;;;;;17.63;50.56;100682.81;4803797;29;20048;-86
2022/11/03 11:09:26;;;;;;;0.40;0.40;;;;;;;17.75;50.52;100701.78;4819064;29;20123;-86
2022/11/03 11:12:17;;;;;;;0.65;0.40;;;;;;;17.76;50.57;100704.22;4796588;29;20083;-86
2022/11/03 11:14:56;;;;;;;0.30;0.30;;;;;;;17.75;50.70;100705.31;4819208;29;20109;-86
2022/11/03 11:17:41;;;;;;;0.30;0.30;;;;;;;17.76;50.61;100701.53;4788804;29;20039;-86
2022/11/03 11:20:22;;;;;;;0.50;0.50;;;;;;;17.77;50.43;100696.97;4818069;29;20077;-86
2022/11/03 11:22:48;;;;;;;2.00;0.50;;;;;;;17.77;50.60;100708.59;4788034;29;20034;-86
2022/11/03 11:25:14;;;;;;;0.40;0.38;;;;;;;17.79;50.77;100694.84;4818823;29;20064;-86
2022/11/03 11:27:40;;;;;;;0.30;0.30;;;;;;;17.79;50.66;100692.16;4773397;29;20041;-86
2022/11/03 11:30:26;;;;;;;0.38;0.38;;;;;;;17.79;50.62;100695.69;4819844;29;20031;-86
2022/11/03 11:33:06;;;;;;;0.40;0.40;;;;;;;17.81;50.55;100703.56;4780673;29;20046;-86
2022/11/03 11:35:52;;;;;;;0.40;0.40;;;;;;;17.76;50.71;100690.72;4819412;29;20111;-86
2022/11/03 11:39:03;;;;;;;1.08;0.30;;;;;;;17.81;50.45;100703.56;4817744;29;20065;-86
2022/11/03 11:42:06;;;;;;;0.38;0.38;;;;;;;17.81;50.78;100707.09;4816223;29;20134;-86
2022/11/03 11:44:55;;;;;;;0.50;0.50;;;;;;;17.80;50.55;100710.03;4817219;29;20508;-86
2022/11/03 11:47:25;;;;;;;0.77;0.60;;;;;;;17.77;50.78;100705.91;4799501;29;20359;-87
2022/11/03 11:50:06;;;;;;;0.38;0.32;;;;;;;17.80;50.68;100708.16;4818288;29;20053;-86
2022/11/03 11:52:56;;;;;;;0.40;0.40;;;;;;;17.80;50.80;100721.66;4817646;29;20428;-86
2022/11/03 11:55:37;;;;;;;0.52;0.40;;;;;;;17.78;50.67;100715.66;4817716;29;20054;-86
2022/11/03 11:58:04;;;;;;;0.38;0.38;;;;;;;17.77;50.72;100707.78;4801899;29;20408;-86